createdAt,value
2022-12-27T00:01:12.355Z,100.00
2022-12-27T00:03:41.355Z,100.00
2022-12-27T00:06:16.019Z,100.00
2022-12-27T00:08:46.603Z,100.00
2022-12-27T00:11:17.395Z,100.00
2022-12-27T00:13:45.657Z,100.00
2022-12-27T00:16:16.137Z,100.00
2022-12-27T00:18:44.462Z,100.00
2022-12-27T00:21:14.286Z,100.00
2022-12-27T00:23:45.602Z,100.00
2022-12-27T00:26:17.314Z,100.00
2022-12-27T00:28:46.754Z,100.00
2022-12-27T00:31:15.793Z,100.00
2022-12-27T00:33:45.619Z,100.00
2022-12-27T00:36:16.299Z,100.00
2022-12-27T00:38:44.836Z,100.00
2022-12-27T00:41:14.853Z,100.00
2022-12-27T00:43:43.261Z,100.00
2022-12-27T00:46:11.494Z,100.00
2022-12-27T00:48:40.031Z,100.00
2022-12-27T00:51:09.786Z,100.00
2022-12-27T00:53:38.238Z,100.00
2022-12-27T00:56:08.810Z,100.00
2022-12-27T00:58:41.013Z,100.00
2022-12-27T01:01:10.798Z,100.00
2022-12-27T01:03:39.057Z,100.00
2022-12-27T01:06:08.018Z,100.00
2022-12-27T01:08:36.402Z,100.00
2022-12-27T01:11:05.083Z,100.00
2022-12-27T01:13:33.098Z,100.00
2022-12-27T01:16:03.000Z,100.00
2022-12-27T01:18:31.141Z,100.00
2022-12-27T01:20:59.310Z,100.00
2022-12-27T01:23:27.853Z,100.00
2022-12-27T01:26:01.643Z,100.00
2022-12-27T01:28:30.134Z,100.00
2022-12-27T01:30:58.274Z,100.00
2022-12-27T01:33:27.772Z,100.00
2022-12-27T01:35:55.877Z,100.00
2022-12-27T01:38:23.915Z,100.00
2022-12-27T01:40:51.947Z,100.00
2022-12-27T01:43:19.474Z,100.00
2022-12-27T01:45:49.104Z,100.00
2022-12-27T01:48:22.716Z,100.00
2022-12-27T01:50:55.588Z,100.00
2022-12-27T01:53:25.840Z,100.00
2022-12-27T01:55:57.367Z,100.00
2022-12-27T01:58:30.273Z,100.00
2022-12-27T02:00:59.714Z,100.00
2022-12-27T02:03:31.479Z,100.00
2022-12-27T02:06:03.575Z,100.00
2022-12-27T02:08:40.718Z,100.00
2022-12-27T02:11:10.172Z,100.00
2022-12-27T02:13:42.208Z,100.00
2022-12-27T02:16:15.591Z,100.00
2022-12-27T02:18:44.174Z,100.00
2022-12-27T02:21:51.611Z,100.00
2022-12-27T02:24:41.470Z,100.00
2022-12-27T02:27:27.347Z,100.00
2022-12-27T02:30:03.091Z,100.00
2022-12-27T02:32:35.985Z,100.00
2022-12-27T02:35:10.713Z,100.00
2022-12-27T02:37:42.703Z,100.00
2022-12-27T02:40:30.780Z,100.00
2022-12-27T02:43:16.879Z,100.00
2022-12-27T02:46:11.288Z,100.00
2022-12-27T02:48:56.790Z,100.00
2022-12-27T02:51:56.065Z,100.00
2022-12-27T02:54:50.510Z,100.00
2022-12-27T02:57:30.778Z,100.00
2022-12-27T03:00:25.389Z,100.00
2022-12-27T03:03:29.390Z,100.00
2022-12-27T03:06:37.416Z,100.00
2022-12-27T03:09:35.545Z,100.00
2022-12-27T03:12:28.365Z,100.00
2022-12-27T03:15:18.519Z,100.00
2022-12-27T03:17:53.245Z,100.00
2022-12-27T03:20:41.412Z,100.00
2022-12-27T03:23:28.765Z,100.00
2022-12-27T03:25:59.357Z,100.00
2022-12-27T03:28:48.450Z,100.00
2022-12-27T03:31:37.866Z,100.00
2022-12-27T03:34:24.187Z,100.00
2022-12-27T03:37:12.429Z,100.00
2022-12-27T03:39:48.503Z,100.00
2022-12-27T03:42:42.592Z,100.00
2022-12-27T03:45:11.576Z,100.00
2022-12-27T03:47:46.546Z,100.00
2022-12-27T03:50:22.141Z,100.00
2022-12-27T03:52:58.235Z,100.00
2022-12-27T03:55:33.028Z,100.00
2022-12-27T03:58:01.406Z,100.00
2022-12-27T04:00:30.939Z,100.00
2022-12-27T04:02:59.235Z,100.00
2022-12-27T04:05:27.497Z,100.00
2022-12-27T04:08:14.626Z,100.00
2022-12-27T04:11:00.009Z,100.00
2022-12-27T04:13:45.612Z,100.00
2022-12-27T04:16:31.336Z,100.00
2022-12-27T04:19:16.774Z,100.00
2022-12-27T04:22:02.477Z,100.00
2022-12-27T04:24:49.479Z,100.00
2022-12-27T04:27:35.142Z,100.00
2022-12-27T04:30:20.728Z,100.00
2022-12-27T04:33:06.200Z,100.00
2022-12-27T04:35:34.403Z,100.00
2022-12-27T04:38:02.425Z,100.00
2022-12-27T04:40:49.308Z,100.00
2022-12-27T04:43:34.680Z,100.00
2022-12-27T04:46:20.252Z,100.00
2022-12-27T04:49:05.920Z,100.00
2022-12-27T04:51:51.203Z,100.00
2022-12-27T04:54:38.358Z,100.00
2022-12-27T04:57:08.093Z,100.00
2022-12-27T04:59:53.776Z,100.00
2022-12-27T05:02:22.332Z,100.00
2022-12-27T05:04:50.720Z,100.00
2022-12-27T05:07:36.313Z,100.00
2022-12-27T05:10:24.832Z,100.00
2022-12-27T05:13:11.891Z,100.00
2022-12-27T05:15:40.256Z,100.00
2022-12-27T05:18:08.441Z,100.00
2022-12-27T05:20:36.585Z,100.00
2022-12-27T05:23:22.205Z,100.00
2022-12-27T05:25:50.318Z,100.00
2022-12-27T05:28:19.836Z,100.00
2022-12-27T05:30:47.942Z,100.00
2022-12-27T05:33:16.078Z,100.00
2022-12-27T05:35:44.233Z,100.00
2022-12-27T05:38:12.502Z,100.00
2022-12-27T05:40:40.666Z,100.00
2022-12-27T05:43:08.800Z,100.00
2022-12-27T05:45:38.302Z,100.00
2022-12-27T05:48:07.170Z,100.00
2022-12-27T05:50:35.263Z,100.00
2022-12-27T05:53:03.470Z,100.00
2022-12-27T05:55:31.476Z,100.00
2022-12-27T05:57:59.551Z,100.00
2022-12-27T06:00:27.649Z,100.00
2022-12-27T06:02:57.363Z,100.00
2022-12-27T06:05:25.519Z,100.00
2022-12-27T06:07:53.535Z,100.00
2022-12-27T06:10:21.788Z,100.00
2022-12-27T06:12:50.034Z,100.00
2022-12-27T06:15:18.534Z,100.00
2022-12-27T06:17:46.765Z,100.00
2022-12-27T06:20:16.504Z,100.00
2022-12-27T06:22:44.885Z,100.00
2022-12-27T06:25:14.475Z,100.00
2022-12-27T06:27:42.818Z,100.00
2022-12-27T06:30:12.392Z,100.00
2022-12-27T06:32:40.921Z,100.00
2022-12-27T06:35:11.394Z,100.00
2022-12-27T06:37:40.998Z,100.00
2022-12-27T06:40:10.176Z,100.00
2022-12-27T06:42:38.318Z,100.00
2022-12-27T06:45:09.488Z,100.00
2022-12-27T06:47:37.677Z,100.00
2022-12-27T06:50:06.637Z,100.00
2022-12-27T06:52:34.897Z,100.00
2022-12-27T06:55:04.797Z,100.00
2022-12-27T06:57:32.936Z,100.00
2022-12-27T07:00:01.801Z,100.00
2022-12-27T07:02:30.099Z,100.00
2022-12-27T07:04:58.320Z,100.00
2022-12-27T07:07:26.396Z,100.00
2022-12-27T07:09:54.463Z,100.00
2022-12-27T07:12:24.067Z,100.00
2022-12-27T07:14:52.278Z,100.00
2022-12-27T07:17:20.342Z,100.00
2022-12-27T07:19:48.718Z,100.00
2022-12-27T07:22:17.005Z,100.00
2022-12-27T07:24:45.093Z,100.00
2022-12-27T07:27:15.668Z,100.00
2022-12-27T07:29:45.897Z,100.00
2022-12-27T07:32:14.181Z,100.00
2022-12-27T07:34:42.325Z,100.00
2022-12-27T07:37:10.552Z,100.00
2022-12-27T07:39:38.603Z,100.00
2022-12-27T07:42:08.909Z,100.00
2022-12-27T07:44:37.176Z,100.00
2022-12-27T07:47:06.908Z,100.00
2022-12-27T07:49:35.109Z,100.00
2022-12-27T07:52:03.443Z,100.00
2022-12-27T07:54:31.630Z,100.00
2022-12-27T08:23:17.037Z,100.00
2022-12-27T08:25:49.077Z,100.00
2022-12-27T08:28:19.533Z,100.00
2022-12-27T08:30:48.983Z,100.00
2022-12-27T08:33:17.900Z,100.00
2022-12-27T08:35:53.737Z,100.00
2022-12-27T08:38:23.875Z,100.00
2022-12-27T08:40:52.142Z,100.00
2022-12-27T08:43:21.140Z,100.00
2022-12-27T08:45:49.369Z,100.00
2022-12-27T08:48:19.546Z,100.00
2022-12-27T08:50:47.824Z,100.00
2022-12-27T08:53:16.006Z,100.00
2022-12-27T08:55:45.492Z,100.00
2022-12-27T08:58:16.461Z,100.00
2022-12-27T09:00:44.990Z,100.00
2022-12-27T09:03:16.304Z,100.00
2022-12-27T09:05:44.811Z,100.00
2022-12-27T09:08:13.345Z,100.00
2022-12-27T09:10:41.548Z,100.00
2022-12-27T09:13:11.236Z,100.00
2022-12-27T09:15:39.565Z,100.00
2022-12-27T09:18:08.039Z,100.00
2022-12-27T09:20:36.436Z,100.00
2022-12-27T09:23:04.572Z,100.00
2022-12-27T09:25:32.674Z,100.00
2022-12-27T09:28:00.862Z,100.00
2022-12-27T09:30:30.489Z,100.00
2022-12-27T09:32:59.809Z,100.00
2022-12-27T09:35:28.089Z,100.00
2022-12-27T09:37:56.264Z,100.00
2022-12-27T09:40:24.639Z,100.00
2022-12-27T09:43:12.524Z,100.00
2022-12-27T09:45:52.923Z,100.00
2022-12-27T09:48:32.952Z,100.00
2022-12-27T09:51:06.692Z,100.00
2022-12-27T09:53:43.814Z,100.00
2022-12-27T09:56:14.407Z,100.00
2022-12-27T09:58:49.089Z,100.00
2022-12-27T10:01:32.944Z,100.00
2022-12-27T10:04:01.775Z,100.00
2022-12-27T10:06:54.684Z,100.00
2022-12-27T10:09:37.026Z,100.00
2022-12-27T10:12:17.693Z,100.00
2022-12-27T10:15:04.636Z,100.00
2022-12-27T10:17:52.842Z,100.00
2022-12-27T10:20:32.185Z,100.00
2022-12-27T10:23:06.460Z,100.00
2022-12-27T10:25:37.118Z,100.00
2022-12-27T10:28:23.143Z,100.00
2022-12-27T10:30:52.253Z,100.00
2022-12-27T10:33:27.065Z,100.00
2022-12-27T10:35:55.595Z,100.00
2022-12-27T10:38:24.679Z,100.00
2022-12-27T10:40:59.053Z,100.00
2022-12-27T10:43:33.549Z,99.82
2022-12-27T10:46:13.851Z,99.40
2022-12-27T10:49:20.272Z,99.42
2022-12-27T10:51:45.537Z,98.33
2022-12-27T10:54:15.736Z,97.77
2022-12-27T10:56:45.048Z,98.13
2022-12-27T10:59:17.104Z,97.96
2022-12-27T11:01:46.789Z,98.67
2022-12-27T11:04:20.968Z,97.96
2022-12-27T11:06:52.435Z,96.88
2022-12-27T11:09:32.406Z,95.25
2022-12-27T11:12:23.937Z,94.24
2022-12-27T11:14:57.137Z,93.83
2022-12-27T11:17:29.686Z,93.76
2022-12-27T11:20:04.336Z,94.99
2022-12-27T11:22:33.357Z,94.76
2022-12-27T11:25:02.241Z,94.07
2022-12-27T11:27:32.053Z,93.84
2022-12-27T11:30:01.144Z,95.03
2022-12-27T11:32:29.341Z,92.38
2022-12-27T11:34:59.234Z,92.91
2022-12-27T11:37:28.486Z,89.46
2022-12-27T11:40:12.040Z,87.74
2022-12-27T11:42:45.671Z,84.16
2022-12-27T11:45:22.209Z,81.07
2022-12-27T11:47:55.766Z,80.21
2022-12-27T11:50:41.029Z,80.18
2022-12-27T11:53:30.311Z,79.08
2022-12-27T11:56:14.491Z,78.54
2022-12-27T11:59:16.591Z,77.82
2022-12-27T12:02:18.602Z,76.98
2022-12-27T12:05:43.343Z,76.55
2022-12-27T12:08:36.240Z,77.19
2022-12-27T12:11:17.089Z,76.18
2022-12-27T12:14:11.470Z,75.37
2022-12-27T12:17:04.216Z,73.19
2022-12-27T12:20:05.557Z,69.58
2022-12-27T12:22:51.750Z,67.92
2022-12-27T12:25:48.910Z,67.30
2022-12-27T12:28:58.584Z,68.75
2022-12-27T12:31:40.571Z,68.59
2022-12-27T12:34:24.701Z,66.85
2022-12-27T12:37:06.918Z,65.12
2022-12-27T12:39:56.267Z,64.85
2022-12-27T12:42:32.538Z,64.14
2022-12-27T12:45:22.167Z,60.20
2022-12-27T12:48:43.829Z,60.72
2022-12-27T12:51:27.643Z,61.19
2022-12-27T12:54:09.270Z,61.44
2022-12-27T12:57:03.243Z,61.15
2022-12-27T12:59:50.456Z,60.81
2022-12-27T13:02:39.136Z,61.35
2022-12-27T13:05:17.094Z,61.42
2022-12-27T13:07:57.378Z,62.01
2022-12-27T13:10:46.580Z,61.67
2022-12-27T13:13:24.106Z,61.44
2022-12-27T13:16:08.126Z,60.50
2022-12-27T13:18:47.782Z,61.04
2022-12-27T13:21:31.470Z,61.07
2022-12-27T13:24:08.602Z,60.97
2022-12-27T13:26:46.953Z,61.29
2022-12-27T13:29:37.140Z,61.10
2022-12-27T13:32:14.825Z,61.26
2022-12-27T13:34:55.252Z,60.35
2022-12-27T13:37:39.213Z,61.00
2022-12-27T13:40:25.178Z,61.55
2022-12-27T13:43:17.824Z,61.63
2022-12-27T13:46:02.153Z,62.11
2022-12-27T13:48:52.563Z,62.20
2022-12-27T13:51:39.639Z,61.15
2022-12-27T13:54:30.791Z,61.74
2022-12-27T13:57:13.235Z,61.79
2022-12-27T14:00:11.978Z,59.78
2022-12-27T14:03:26.469Z,57.33
2022-12-27T14:06:39.104Z,56.76
2022-12-27T14:09:31.047Z,57.06
2022-12-27T14:12:15.731Z,56.16
2022-12-27T14:14:46.392Z,56.14
2022-12-27T14:17:30.093Z,56.24
2022-12-27T14:20:18.747Z,56.38
2022-12-27T14:23:06.817Z,56.92
2022-12-27T14:26:06.155Z,57.16
2022-12-27T14:29:02.682Z,57.43
2022-12-27T14:32:07.817Z,57.38
2022-12-27T14:35:07.592Z,57.58
2022-12-27T14:38:18.462Z,57.96
2022-12-27T14:41:10.305Z,58.86
2022-12-27T14:44:11.696Z,59.90
2022-12-27T14:47:08.050Z,61.10
2022-12-27T14:50:08.878Z,62.20
2022-12-27T14:53:22.932Z,63.92
2022-12-27T14:56:03.707Z,64.28
2022-12-27T14:58:46.859Z,64.83
2022-12-27T15:01:28.664Z,65.04
2022-12-27T15:04:29.472Z,65.78
2022-12-27T15:07:21.335Z,66.25
2022-12-27T15:09:59.076Z,65.07
2022-12-27T15:12:37.612Z,65.02
2022-12-27T15:15:32.285Z,64.92
2022-12-27T15:18:23.972Z,64.86
2022-12-27T15:21:22.879Z,65.12
2022-12-27T15:23:56.028Z,65.69
2022-12-27T15:26:35.920Z,64.63
2022-12-27T15:29:21.044Z,65.34
2022-12-27T15:32:00.514Z,66.23
2022-12-27T15:34:50.372Z,66.88
2022-12-27T15:37:53.585Z,66.88
2022-12-27T15:40:37.371Z,67.00
2022-12-27T15:43:16.180Z,67.57
2022-12-27T15:46:01.662Z,67.86
2022-12-27T15:49:03.272Z,67.98
2022-12-27T15:51:38.074Z,68.08
2022-12-27T15:54:28.392Z,67.90
2022-12-27T15:57:24.661Z,66.57
2022-12-27T15:59:55.235Z,66.32
2022-12-27T16:02:33.436Z,65.47
2022-12-27T16:05:13.061Z,65.81
2022-12-27T16:07:44.879Z,66.75
2022-12-27T16:10:35.835Z,66.71
2022-12-27T16:13:23.004Z,65.92
2022-12-27T16:15:55.220Z,66.26
2022-12-27T16:19:10.779Z,65.48
2022-12-27T16:21:44.713Z,65.76
2022-12-27T16:24:19.446Z,66.41
2022-12-27T16:26:57.500Z,66.67
2022-12-27T16:29:30.213Z,67.21
2022-12-27T16:32:17.036Z,67.08
2022-12-27T16:34:47.247Z,67.16
2022-12-27T16:37:24.627Z,67.45
2022-12-27T16:40:07.485Z,67.31
2022-12-27T16:43:14.175Z,67.54
2022-12-27T16:45:50.847Z,67.60
2022-12-27T16:48:28.074Z,68.10
2022-12-27T16:51:09.887Z,67.68
2022-12-27T16:54:07.453Z,67.98
2022-12-27T16:56:37.500Z,68.75
2022-12-27T16:59:48.724Z,68.76
2022-12-27T17:02:33.752Z,69.05
2022-12-27T17:05:02.431Z,69.51
2022-12-27T17:07:51.451Z,69.40
2022-12-27T17:11:01.203Z,70.01
2022-12-27T17:13:46.396Z,70.39
2022-12-27T17:16:21.972Z,70.54
2022-12-27T17:18:57.974Z,70.55
2022-12-27T17:21:30.750Z,70.24
2022-12-27T17:24:01.977Z,70.56
2022-12-27T17:26:53.543Z,70.70
2022-12-27T17:29:51.226Z,70.76
2022-12-27T17:32:31.314Z,71.23
2022-12-27T17:35:07.491Z,71.65
2022-12-27T17:37:45.221Z,71.96
2022-12-27T17:40:27.688Z,72.01
2022-12-27T17:43:25.865Z,71.57
2022-12-27T17:46:00.004Z,71.21
2022-12-27T17:48:30.716Z,71.69
2022-12-27T17:51:03.536Z,71.60
2022-12-27T17:53:49.713Z,71.18
2022-12-27T17:56:37.834Z,71.27
2022-12-27T17:59:10.128Z,71.34
2022-12-27T18:01:45.396Z,71.60
2022-12-27T18:04:22.173Z,71.37
2022-12-27T18:06:55.812Z,71.73
2022-12-27T18:09:44.707Z,71.91
2022-12-27T18:12:18.895Z,72.37
2022-12-27T18:14:55.581Z,72.44
2022-12-27T18:17:29.360Z,72.98
2022-12-27T18:19:58.040Z,73.33
2022-12-27T18:22:28.875Z,73.60
2022-12-27T18:24:57.205Z,73.52
2022-12-27T18:27:26.992Z,73.93
2022-12-27T18:30:32.728Z,74.36
2022-12-27T18:33:11.850Z,74.49
2022-12-27T18:35:40.428Z,74.87
2022-12-27T18:38:10.371Z,75.19
2022-12-27T18:40:38.615Z,75.63
2022-12-27T18:43:16.737Z,75.62
2022-12-27T18:45:44.991Z,76.29
2022-12-27T18:48:13.916Z,76.38
2022-12-27T18:51:10.668Z,76.62
2022-12-27T18:53:55.688Z,76.83
2022-12-27T18:56:51.132Z,77.04
2022-12-27T18:59:25.879Z,77.34
2022-12-27T19:01:55.318Z,77.51
2022-12-27T19:04:26.913Z,78.08
2022-12-27T19:06:59.134Z,78.05
2022-12-27T19:09:32.508Z,77.95
2022-12-27T19:12:04.659Z,77.96
2022-12-27T19:14:38.972Z,78.30
2022-12-27T19:17:11.279Z,78.59
2022-12-27T19:19:40.004Z,78.38
2022-12-27T19:22:30.501Z,78.32
2022-12-27T19:25:02.091Z,78.69
2022-12-27T19:27:30.178Z,78.85
2022-12-27T19:29:58.222Z,79.28
2022-12-27T19:32:33.467Z,79.43
2022-12-27T19:35:04.301Z,79.36
2022-12-27T19:37:35.929Z,79.64
2022-12-27T19:40:07.256Z,80.32
2022-12-27T19:42:36.857Z,80.38
2022-12-27T19:45:05.188Z,81.04
2022-12-27T19:47:34.984Z,81.19
2022-12-27T19:50:03.241Z,81.80
2022-12-27T19:52:31.476Z,82.03
2022-12-27T19:55:03.675Z,82.07
2022-12-27T19:57:33.253Z,82.39
2022-12-27T20:00:05.520Z,82.92
2022-12-27T20:02:37.570Z,82.35
2022-12-27T20:05:09.908Z,82.04
2022-12-27T20:07:39.377Z,82.14
2022-12-27T20:10:08.338Z,81.70
2022-12-27T20:12:37.911Z,81.94
2022-12-27T20:15:07.192Z,82.15
2022-12-27T20:17:41.102Z,81.72
2022-12-27T20:20:13.555Z,81.95
2022-12-27T20:22:41.807Z,82.49
2022-12-27T20:25:11.043Z,83.08
2022-12-27T20:27:40.664Z,82.55
2022-12-27T20:30:10.493Z,82.86
2022-12-27T20:32:38.917Z,82.66
2022-12-27T20:35:08.219Z,83.02
2022-12-27T20:37:36.368Z,82.66
2022-12-27T20:40:05.298Z,82.01
2022-12-27T20:42:33.388Z,81.37
2022-12-27T20:45:03.054Z,81.35
2022-12-27T20:47:31.269Z,81.36
2022-12-27T20:49:59.536Z,80.59
2022-12-27T20:52:31.128Z,81.18
2022-12-27T20:55:00.201Z,80.85
2022-12-27T20:57:28.278Z,81.30
2022-12-27T20:59:56.753Z,80.97
2022-12-27T21:02:26.728Z,80.71
2022-12-27T21:04:55.253Z,80.93
2022-12-27T21:07:23.495Z,79.91
2022-12-27T21:09:51.758Z,79.91
2022-12-27T21:12:20.680Z,79.79
2022-12-27T21:14:50.071Z,80.58
2022-12-27T21:17:19.145Z,80.44
2022-12-27T21:19:50.764Z,80.49
2022-12-27T21:22:18.967Z,80.43
2022-12-27T21:24:47.243Z,81.00
2022-12-27T21:27:15.443Z,80.44
2022-12-27T21:29:43.832Z,80.82
2022-12-27T21:32:12.153Z,80.22
2022-12-27T21:34:41.373Z,79.91
2022-12-27T21:37:13.482Z,79.35
2022-12-27T21:39:41.791Z,78.99
2022-12-27T21:42:11.022Z,78.81
2022-12-27T21:44:39.346Z,78.49
2022-12-27T21:47:07.915Z,77.76
2022-12-27T21:49:40.407Z,77.64
2022-12-27T21:52:08.687Z,77.09
2022-12-27T21:54:38.240Z,76.43
2022-12-27T21:57:06.487Z,75.51
2022-12-27T21:59:34.874Z,74.65
2022-12-27T22:02:03.203Z,74.05
2022-12-27T22:04:31.483Z,73.51
2022-12-27T22:06:59.695Z,72.77
2022-12-27T22:09:27.833Z,72.36
2022-12-27T22:11:57.394Z,72.26
2022-12-27T22:14:26.394Z,72.12
2022-12-27T22:16:55.842Z,71.35
2022-12-27T22:19:23.900Z,70.89
2022-12-27T22:21:52.027Z,70.78
2022-12-27T22:24:20.482Z,70.59
2022-12-27T22:26:50.296Z,70.71
2022-12-27T22:29:21.794Z,70.24
2022-12-27T22:31:49.945Z,69.78
2022-12-27T22:34:18.360Z,69.88
2022-12-27T22:36:46.506Z,69.76
2022-12-27T22:39:14.537Z,69.74
2022-12-27T22:41:42.716Z,69.99
2022-12-27T22:44:13.585Z,70.78
2022-12-27T22:47:24.637Z,70.78
2022-12-27T22:49:32.046Z,70.38
2022-12-27T22:52:00.144Z,70.64
2022-12-27T22:55:05.211Z,70.58
2022-12-27T22:57:16.541Z,70.32
2022-12-27T22:59:44.648Z,69.80
2022-12-27T23:02:14.262Z,69.82
2022-12-27T23:04:42.683Z,69.75
2022-12-27T23:07:10.781Z,69.55
2022-12-27T23:09:43.152Z,69.75
2022-12-27T23:12:12.026Z,69.94
2022-12-27T23:14:40.388Z,70.41
2022-12-27T23:17:08.508Z,70.16
2022-12-27T23:19:37.966Z,69.68
2022-12-27T23:22:06.752Z,69.73
2022-12-27T23:24:35.202Z,70.15
2022-12-27T23:27:03.413Z,70.09
2022-12-27T23:29:31.540Z,69.77
2022-12-27T23:31:59.620Z,69.58
2022-12-27T23:34:29.180Z,69.72
2022-12-27T23:36:59.097Z,69.10
2022-12-27T23:39:27.504Z,68.93
2022-12-27T23:41:55.701Z,69.51
2022-12-27T23:44:34.098Z,69.09
2022-12-27T23:47:04.500Z,69.26
2022-12-27T23:49:32.770Z,68.20
2022-12-27T23:52:02.329Z,68.14
2022-12-27T23:54:30.516Z,68.45
2022-12-27T23:57:22.156Z,67.68
2022-12-27T23:59:47.205Z,67.18
